Time;durP1;ratioP1;P1;durP2;ratioP2;P2;SDS_P1;SDS_P2;PMS_P1;PMS_P2;Temp;Humidity;BMP_temperature;BMP_pressure;BME280_temperature;BME280_humidity;BME280_pressure;Samples;Min_cycle;Max_cycle;Signal;HPM_P1;HPM_P2
2021/11/08 00:02:08;;;;;;;;;;;;;;;7.19;78.53;99303.73;1723629;82;20946;-61
2021/11/08 00:04:38;;;;;;;21.12;15.55;;;;;;;7.12;78.63;99296.16;1704332;83;20707;-60
2021/11/08 00:07:05;;;;;;;22.82;14.80;;;;;;;7.09;78.98;99289.28;1712855;82;21523;-60
2021/11/08 00:09:33;;;;;;;21.00;14.50;;;;;;;7.20;78.84;99288.92;1733735;82;21617;-60
2021/11/08 00:12:01;;;;;;;19.73;14.90;;;;;;;7.23;78.57;99278.33;1733630;82;21499;-59
2021/11/08 00:14:28;;;;;;;20.95;15.38;;;;;;;7.20;78.46;99275.38;1733985;82;21448;-60
2021/11/08 00:18:03;;;;;;;21.23;16.48;;;;;;;7.19;78.44;99278.05;1734034;82;21836;-59
2021/11/08 00:22:04;;;;;;;23.67;15.72;;;;;;;7.20;78.54;99271.46;1727216;82;21502;-59
2021/11/08 00:24:36;;;;;;;19.37;15.18;;;;;;;7.30;78.21;99265.91;1733213;82;21515;-58
2021/11/08 00:27:02;;;;;;;25.77;15.83;;;;;;;7.31;77.99;99267.60;1734001;82;21420;-58
2021/11/08 00:29:33;;;;;;;19.92;16.52;;;;;;;7.29;77.77;99270.30;1730723;82;21497;-59
2021/11/08 00:34:13;;;;;;;23.77;16.17;;;;;;;7.26;78.21;99264.32;1804889;79;23131;-59
2021/11/08 00:36:42;;;;;;;20.23;14.87;;;;;;;7.17;77.99;99262.41;1778544;80;21391;-61
2021/11/08 00:39:09;;;;;;;20.87;15.57;;;;;;;7.11;78.22;99265.70;1778223;80;21824;-59
2021/11/08 00:41:36;;;;;;;19.62;15.72;;;;;;;7.11;78.57;99262.63;1776973;80;20980;-59
2021/11/08 00:44:03;;;;;;;18.82;15.05;;;;;;;7.18;78.46;99266.74;1779056;80;21418;-59
2021/11/08 00:46:30;;;;;;;22.02;15.72;;;;;;;7.17;78.27;99268.09;1779070;79;20953;-59
2021/11/08 00:48:57;;;;;;;20.52;16.77;;;;;;;7.12;78.41;99273.50;1778745;80;21498;-59
2021/11/08 00:51:24;;;;;;;20.32;16.30;;;;;;;7.10;78.42;99270.52;1778612;80;21841;-59
2021/11/08 00:53:51;;;;;;;19.98;16.12;;;;;;;7.11;78.77;99269.63;1778743;79;21467;-59
2021/11/08 00:56:20;;;;;;;21.20;15.40;;;;;;;7.18;78.21;99270.66;1778907;80;20977;-59
2021/11/08 00:58:46;;;;;;;19.85;15.75;;;;;;;7.13;78.38;99281.73;1774945;79;21498;-59
2021/11/08 01:01:19;;;;;;;21.02;15.98;;;;;;;7.11;78.41;99276.16;1756649;80;21413;-60
2021/11/08 01:03:44;;;;;;;27.67;16.10;;;;;;;7.08;78.46;99278.88;1772030;80;21475;-59
2021/11/08 01:06:12;;;;;;;26.95;17.20;;;;;;;7.07;78.76;99279.80;1775829;80;21429;-60
2021/11/08 01:08:40;;;;;;;;;;;;;;;7.16;78.44;99279.48;1756228;80;21554;-59
2021/11/08 01:11:07;;;;;;;;;;;;;;;7.12;78.21;99276.55;1766055;80;20433;-59
2021/11/08 01:13:34;;;;;;;22.48;16.12;;;;;;;6.99;78.68;99269.14;1766157;80;20437;-59
2021/11/08 01:16:03;;;;;;;20.82;15.80;;;;;;;6.88;78.77;99256.05;1768640;79;21692;-59
2021/11/08 01:18:29;;;;;;;;;;;;;;;6.89;79.10;99255.13;1771717;79;21455;-59
2021/11/08 01:20:56;;;;;;;24.77;16.62;;;;;;;6.97;78.99;99258.34;1768496;80;20429;-59
2021/11/08 01:23:28;;;;;;;26.68;17.42;;;;;;;6.95;78.68;99257.09;1768520;79;20985;-60
2021/11/08 01:26:05;;;;;;;25.05;18.10;;;;;;;6.91;78.84;99265.95;1763239;79;21032;-59
2021/11/08 01:28:48;;;;;;;22.55;16.40;;;;;;;6.89;78.92;99262.50;1761916;81;21799;-59
2021/11/08 01:30:56;;;;;;;23.83;17.60;;;;;;;6.90;79.13;99265.53;1748474;81;21040;-58
2021/11/08 01:33:23;;;;;;;23.70;16.97;;;;;;;6.97;79.10;99269.65;1775463;80;21420;-59
2021/11/08 01:36:09;;;;;;;23.02;17.20;;;;;;;7.01;78.63;99267.78;1773194;80;21440;-59
2021/11/08 01:38:26;;;;;;;22.82;18.00;;;;;;;6.95;78.69;99262.31;1768443;80;20950;-58
2021/11/08 01:40:53;;;;;;;23.05;17.42;;;;;;;6.95;78.63;99257.52;1748305;80;21821;-59
2021/11/08 01:43:24;;;;;;;23.00;16.90;;;;;;;6.97;78.74;99255.73;1742009;81;21601;-58
2021/11/08 01:45:51;;;;;;;22.73;18.32;;;;;;;7.05;78.47;99260.70;1762399;80;21455;-59
2021/11/08 01:48:17;;;;;;;29.13;17.77;;;;;;;7.04;78.16;99262.89;1760442;81;20991;-59
2021/11/08 01:50:44;;;;;;;26.65;18.73;;;;;;;6.95;78.20;99261.01;1759960;81;21436;-59
2021/11/08 01:53:11;;;;;;;23.95;17.75;;;;;;;6.91;78.35;99272.91;1760731;79;21483;-59
2021/11/08 01:55:38;;;;;;;24.75;16.82;;;;;;;6.92;78.63;99268.94;1758815;80;21454;-61
2021/11/08 01:58:05;;;;;;;24.77;16.70;;;;;;;7.03;78.36;99264.66;1754965;81;21411;-58
2021/11/08 02:00:32;;;;;;;23.55;18.48;;;;;;;6.98;78.19;99259.58;1755276;81;21538;-59
2021/11/08 02:02:59;;;;;;;24.92;17.95;;;;;;;6.92;78.12;99253.72;1757724;80;21828;-59
2021/11/08 02:05:26;;;;;;;24.12;18.48;;;;;;;6.86;78.24;99254.78;1761231;79;22129;-59
2021/11/08 02:07:52;;;;;;;26.02;19.00;;;;;;;6.80;78.33;99253.69;1772645;80;21447;-59
2021/11/08 02:10:20;;;;;;;22.02;16.42;;;;;;;6.81;78.46;99254.92;1772441;80;21541;-59
2021/11/08 02:12:48;;;;;;;22.48;17.45;;;;;;;6.87;78.37;99248.63;1772738;80;21485;-60
2021/11/08 02:15:18;;;;;;;24.92;18.52;;;;;;;6.86;78.17;99250.02;1772935;80;21592;-60
2021/11/08 02:17:47;;;;;;;24.65;18.42;;;;;;;6.80;78.02;99244.55;1758853;80;21790;-60
2021/11/08 02:20:23;;;;;;;27.75;17.87;;;;;;;6.69;78.11;99246.20;1766392;80;20942;-59
2021/11/08 02:22:51;;;;;;;26.10;16.97;;;;;;;6.63;78.44;99241.19;1770379;80;21480;-60
2021/11/08 02:25:20;;;;;;;21.40;16.90;;;;;;;6.67;78.40;99248.44;1755559;80;21507;-60
2021/11/08 02:27:47;;;;;;;22.55;18.40;;;;;;;6.66;78.04;99248.06;1748167;80;21006;-60
2021/11/08 02:30:15;;;;;;;22.87;17.92;;;;;;;6.53;78.03;99244.53;1750970;80;22119;-61
2021/11/08 02:32:41;;;;;;;22.45;18.05;;;;;;;6.39;78.44;99249.36;1771955;80;21428;-60
2021/11/08 02:35:11;;;;;;;24.95;17.15;;;;;;;6.33;78.73;99259.98;1751447;80;21451;-60
2021/11/08 02:37:39;;;;;;;27.85;17.98;;;;;;;6.35;79.07;99255.13;1749658;80;20950;-60
2021/11/08 02:40:07;;;;;;;23.60;17.35;;;;;;;6.34;78.92;99259.09;1764629;80;21589;-60
2021/11/08 02:42:35;;;;;;;27.62;17.75;;;;;;;6.25;79.03;99257.61;1752324;80;21785;-61
2021/11/08 02:45:07;;;;;;;26.40;18.25;;;;;;;6.17;79.27;99262.23;1726897;82;21052;-61
2021/11/08 02:47:31;;;;;;;23.80;16.42;;;;;;;6.11;79.41;99258.05;1750074;80;21513;-61
2021/11/08 02:49:59;;;;;;;24.20;18.23;;;;;;;6.12;79.66;99250.64;1763498;80;21515;-60
2021/11/08 02:52:27;;;;;;;25.15;17.48;;;;;;;6.19;79.27;99243.45;1757713;80;21495;-60
2021/11/08 02:54:54;;;;;;;27.77;19.00;;;;;;;6.09;79.23;99249.41;1754527;81;21755;-60
2021/11/08 02:57:23;;;;;;;24.07;17.82;;;;;;;5.97;79.59;99250.66;1754467;81;21404;-60
2021/11/08 02:59:51;;;;;;;21.97;16.20;;;;;;;5.90;79.71;99250.39;1751758;80;21398;-59
2021/11/08 03:02:20;;;;;;;23.85;17.25;;;;;;;5.92;79.91;99251.20;1750346;80;21539;-59
2021/11/08 03:04:49;;;;;;;20.62;15.83;;;;;;;5.97;79.70;99247.16;1754665;81;20962;-59
2021/11/08 03:07:17;;;;;;;29.65;16.90;;;;;;;5.90;79.49;99245.64;1749509;80;21571;-60
2021/11/08 03:09:51;;;;;;;25.85;17.27;;;;;;;5.78;79.80;99263.36;1734133;80;21459;-60
2021/11/08 03:12:22;;;;;;;24.90;16.67;;;;;;;5.69;80.25;99266.66;1732417;82;20950;-60
2021/11/08 03:14:58;;;;;;;21.10;16.67;;;;;;;5.68;80.51;99266.27;1735761;80;21407;-59
2021/11/08 03:17:17;;;;;;;25.37;17.37;;;;;;;5.71;80.37;99256.61;1762796;80;21400;-60
2021/11/08 03:19:44;;;;;;;21.60;17.42;;;;;;;5.65;80.38;99266.77;1750533;80;22085;-60
2021/11/08 03:22:15;;;;;;;19.95;15.78;;;;;;;5.57;80.63;99268.72;1764403;80;21551;-59
2021/11/08 03:25:07;;;;;;;23.20;16.90;;;;;;;5.50;81.00;99263.73;1728078;82;21535;-59
2021/11/08 03:27:29;;;;;;;22.42;15.70;;;;;;;5.57;80.80;99259.59;1719440;82;21473;-60
2021/11/08 03:29:51;;;;;;;21.57;15.85;;;;;;;5.54;80.64;99257.52;1735222;80;21504;-60
2021/11/08 03:32:19;;;;;;;24.52;16.70;;;;;;;5.46;80.65;99255.13;1749463;81;21780;-60
2021/11/08 03:35:03;;;;;;;22.55;16.20;;;;;;;5.42;81.06;99258.27;1749632;80;20942;-59
2021/11/08 03:37:36;;;;;;;19.62;14.60;;;;;;;5.40;81.23;99250.09;1764556;80;21463;-60
2021/11/08 03:40:00;;;;;;;22.37;15.48;;;;;;;5.45;81.05;99256.89;1764072;80;21389;-59
2021/11/08 03:42:29;;;;;;;21.95;16.42;;;;;;;5.44;80.70;99250.41;1763189;80;21498;-59
2021/11/08 03:44:55;;;;;;;19.73;15.07;;;;;;;5.34;80.64;99248.52;1747119;80;21807;-59
2021/11/08 03:47:22;;;;;;;21.55;14.58;;;;;;;5.28;81.12;99252.60;1733327;80;21417;-59
2021/11/08 03:49:49;;;;;;;21.87;15.20;;;;;;;5.34;81.03;99243.76;1739000;80;21423;-59
2021/11/08 03:52:15;;;;;;;21.17;15.18;;;;;;;5.37;80.72;99243.66;1759623;80;21529;-59
2021/11/08 03:54:42;;;;;;;22.35;15.48;;;;;;;5.27;80.84;99243.06;1764649;80;21570;-59
2021/11/08 03:57:09;;;;;;;19.45;14.23;;;;;;;5.21;80.84;99247.99;1764837;80;22061;-59
2021/11/08 03:59:37;;;;;;;;;;;;;;;5.18;81.21;99252.00;1767104;80;21486;-58
2021/11/08 04:02:04;;;;;;;20.60;14.18;;;;;;;5.28;81.07;99249.15;1763196;80;20438;-60
2021/11/08 04:04:30;;;;;;;20.30;14.17;;;;;;;5.24;80.81;99250.98;1764692;80;21495;-59
2021/11/08 04:06:57;;;;;;;20.97;15.18;;;;;;;5.24;80.81;99250.98;1764475;80;22011;-59
2021/11/08 04:09:24;;;;;;;19.77;14.60;;;;;;;5.21;80.77;99248.45;1749195;80;22120;-60
2021/11/08 04:11:50;;;;;;;19.87;14.00;;;;;;;5.24;81.05;99253.59;1735129;80;21412;-59
2021/11/08 04:14:19;;;;;;;22.87;13.72;;;;;;;5.35;80.57;99252.84;1741461;80;21435;-60
2021/11/08 04:16:46;;;;;;;17.37;13.22;;;;;;;5.31;80.54;99243.38;1744154;80;21507;-60
2021/11/08 04:19:13;;;;;;;17.23;13.95;;;;;;;5.29;80.73;99246.93;1751060;80;21661;-60
2021/11/08 04:21:42;;;;;;;15.58;12.85;;;;;;;5.23;81.10;99251.41;1744139;80;21843;-60
2021/11/08 04:24:09;;;;;;;17.80;12.65;;;;;;;5.33;80.98;99248.13;1741824;80;21560;-59
2021/11/08 04:26:37;;;;;;;24.05;14.75;;;;;;;5.39;80.38;99246.64;1734110;82;21487;-59
2021/11/08 04:29:05;;;;;;;19.70;14.58;;;;;;;5.31;80.49;99259.02;1750750;80;21436;-60
2021/11/08 04:31:34;;;;;;;25.17;13.78;;;;;;;5.25;80.63;99255.28;1764730;80;20966;-60
2021/11/08 04:34:07;;;;;;;21.37;14.25;;;;;;;5.26;80.83;99257.01;1764319;80;21755;-59
2021/11/08 04:36:57;;;;;;;17.37;13.78;;;;;;;5.33;80.72;99261.16;1759668;80;21423;-59
2021/11/08 04:49:40;;;;;;;17.73;13.35;;;;;;;5.30;80.32;99276.87;1763338;80;20962;-60
2021/11/08 05:24:48;;;;;;;17.23;13.70;;;;;;;5.14;80.28;99307.72;1707922;81;21002;-60
2021/11/08 05:30:04;;;;;;;20.62;14.55;;;;;;;5.14;80.25;99305.54;1754586;81;21381;-59
2021/11/08 05:32:31;;;;;;;23.10;14.25;;;;;;;5.06;80.36;99303.98;1751756;80;21427;-60
2021/11/08 05:34:58;;;;;;;20.08;12.98;;;;;;;5.07;80.75;99306.16;1756026;81;21498;-60
2021/11/08 05:37:26;;;;;;;17.52;12.82;;;;;;;5.16;80.67;99314.17;1767803;79;20942;-59
2021/11/08 05:39:55;;;;;;;28.98;14.60;;;;;;;5.13;80.49;99320.33;1773075;80;21836;-59
2021/11/08 05:42:22;;;;;;;28.20;13.88;;;;;;;5.08;80.60;99319.58;1772919;80;21523;-60
2021/11/08 05:44:49;;;;;;;23.90;15.23;;;;;;;5.03;80.75;99324.92;1773317;80;21707;-60
2021/11/08 05:47:16;;;;;;;18.77;13.32;;;;;;;5.03;80.96;99337.11;1770723;80;21513;-60
2021/11/08 05:49:44;;;;;;;19.85;14.35;;;;;;;5.14;80.97;99334.20;1772798;80;21427;-60
2021/11/08 05:52:13;;;;;;;19.17;14.78;;;;;;;5.14;80.86;99341.60;1773181;80;21577;-59
2021/11/08 05:54:42;;;;;;;17.17;14.38;;;;;;;5.13;80.75;99340.33;1771913;80;21400;-60
2021/11/08 06:49:38;;;;;;;27.15;14.58;;;;;;;6.28;78.92;99371.56;1741759;82;20950;-57
2021/11/08 06:51:26;;;;;;;29.70;15.18;;;;;;;6.30;78.50;99368.45;1740028;80;21679;-57
2021/11/08 06:54:00;;;;;;;23.80;13.85;;;;;;;6.32;78.42;99369.27;1765530;80;21587;-56
2021/11/08 06:56:26;;;;;;;25.30;13.80;;;;;;;6.41;78.63;99367.23;1768078;80;21400;-56
2021/11/08 06:58:51;;;;;;;24.45;14.35;;;;;;;6.54;78.33;99369.02;1772966;80;21511;-56
2021/11/08 07:01:17;;;;;;;17.95;13.03;;;;;;;6.55;77.81;99370.71;1772961;80;21443;-56
2021/11/08 07:03:44;;;;;;;20.75;12.28;;;;;;;6.62;78.01;99370.94;1772984;80;21387;-57
2021/11/08 07:06:11;;;;;;;17.75;12.53;;;;;;;6.59;77.89;99381.50;1759529;80;21470;-57
2021/11/08 07:08:38;;;;;;;16.73;12.25;;;;;;;6.70;77.73;99381.60;1764465;80;20990;-55
2021/11/08 07:11:05;;;;;;;15.65;12.10;;;;;;;6.85;76.27;99377.20;1749869;79;21492;-55
2021/11/08 07:13:31;;;;;;;16.25;12.37;;;;;;;6.81;76.15;99379.51;1742414;82;21551;-55
2021/11/08 07:15:58;;;;;;;16.40;12.10;;;;;;;6.73;76.68;99379.75;1742271;82;21673;-55
2021/11/08 07:18:25;;;;;;;16.60;11.87;;;;;;;6.70;76.80;99378.53;1759588;80;21772;-57
2021/11/08 07:20:52;;;;;;;17.30;11.80;;;;;;;6.75;77.04;99374.02;1769960;80;21750;-55
2021/11/08 07:23:19;;;;;;;15.03;11.03;;;;;;;6.88;76.10;99385.41;1772213;80;21783;-54
2021/11/08 07:25:46;;;;;;;14.15;11.95;;;;;;;6.86;76.23;99389.38;1770770;80;21091;-56
2021/11/08 07:28:14;;;;;;;17.82;11.00;;;;;;;6.84;76.18;99389.88;1773350;80;21436;-55
2021/11/08 07:30:44;;;;;;;15.45;11.83;;;;;;;6.79;76.04;99385.23;1747051;80;21439;-54
2021/11/08 07:33:11;;;;;;;13.45;11.57;;;;;;;6.87;76.07;99391.06;1738655;82;21496;-54
2021/11/08 07:35:37;;;;;;;14.07;11.00;;;;;;;6.92;75.42;99416.62;1737525;80;21766;-55
2021/11/08 07:38:04;;;;;;;17.50;12.28;;;;;;;6.83;75.74;99414.28;1764748;80;20946;-55
2021/11/08 07:40:31;;;;;;;17.27;12.23;;;;;;;6.80;75.89;99411.79;1764465;80;21491;-55
2021/11/08 07:42:58;;;;;;;12.65;10.88;;;;;;;6.76;76.39;99411.45;1764554;80;21443;-54
2021/11/08 07:45:26;;;;;;;14.23;10.98;;;;;;;6.92;75.32;99411.39;1764575;80;21391;-54
2021/11/08 07:47:54;;;;;;;12.65;11.30;;;;;;;6.90;75.29;99419.73;1741816;80;21773;-56
2021/11/08 07:50:21;;;;;;;14.33;11.53;;;;;;;6.46;75.08;99349.25;1740150;80;21057;-56
2021/11/08 07:52:47;;;;;;;12.95;10.43;;;;;;;6.79;75.64;99415.29;1760411;80;20994;-55
2021/11/08 07:55:14;;;;;;;13.60;10.75;;;;;;;6.82;75.98;99413.44;1756131;80;20931;-56
2021/11/08 07:57:40;;;;;;;12.43;10.70;;;;;;;6.95;75.62;99423.06;1755955;79;21530;-56
2021/11/08 08:00:09;;;;;;;15.00;11.00;;;;;;;6.99;75.03;99426.44;1764004;80;22093;-55
2021/11/08 08:02:38;;;;;;;13.40;11.50;;;;;;;6.88;75.27;99428.53;1763668;80;21436;-54
2021/11/08 08:05:05;;;;;;;15.53;11.15;;;;;;;6.79;75.72;99420.52;1764454;80;21527;-54
2021/11/08 08:07:33;;;;;;;15.48;11.15;;;;;;;6.95;75.45;99426.98;1764353;80;21630;-56
2021/11/08 08:10:00;;;;;;;14.18;11.22;;;;;;;6.99;74.92;99428.59;1746348;80;21510;-55
2021/11/08 08:12:29;;;;;;;14.78;11.48;;;;;;;6.96;75.39;99430.45;1764469;80;21479;-55
2021/11/08 08:14:56;;;;;;;;;;;;;;;6.98;75.94;99437.33;1764305;80;21140;-54
2021/11/08 08:17:22;;;;;;;15.28;10.43;;;;;;;7.01;75.93;99438.55;1754784;80;20405;-55
2021/11/08 08:19:49;;;;;;;13.58;10.48;;;;;;;7.15;76.21;99437.25;1758702;80;21665;-56
2021/11/08 08:22:16;;;;;;;13.65;10.18;;;;;;;7.26;74.84;99440.38;1763514;80;21534;-55
2021/11/08 08:24:42;;;;;;;16.70;11.22;;;;;;;7.24;74.84;99438.27;1750473;80;22004;-55
2021/11/08 08:27:09;;;;;;;14.73;11.08;;;;;;;7.27;74.82;99429.45;1760357;80;21440;-55
2021/11/08 08:29:36;;;;;;;12.85;10.25;;;;;;;7.30;74.73;99435.44;1682750;84;21088;-55
2021/11/08 08:32:03;;;;;;;12.50;10.03;;;;;;;7.44;75.08;99433.70;1746476;80;21472;-55
2021/11/08 08:34:31;;;;;;;11.33;9.70;;;;;;;7.65;73.69;99441.70;1722918;81;20946;-55
2021/11/08 08:36:59;;;;;;;11.80;10.15;;;;;;;7.71;73.29;99438.44;1742796;80;21829;-56
2021/11/08 08:39:26;;;;;;;11.55;10.13;;;;;;;7.79;73.27;99442.09;1757037;80;21590;-55
2021/11/08 08:41:53;;;;;;;13.40;9.63;;;;;;;7.86;72.60;99450.14;1733826;80;21548;-55
2021/11/08 08:44:20;;;;;;;14.93;9.87;;;;;;;7.94;72.49;99449.41;1763083;80;21467;-54
2021/11/08 08:46:47;;;;;;;9.70;8.70;;;;;;;8.10;72.70;99458.03;1735076;80;21551;-57
2021/11/08 08:49:15;;;;;;;12.53;9.20;;;;;;;8.31;72.12;99448.11;1732880;80;21417;-55
2021/11/08 08:51:42;;;;;;;13.78;9.35;;;;;;;8.38;70.95;99447.41;1733840;80;21570;-56
2021/11/08 08:54:10;;;;;;;11.97;9.48;;;;;;;8.35;70.32;99452.31;1753775;80;21636;-56
2021/11/08 08:56:37;;;;;;;11.18;9.28;;;;;;;8.24;70.10;99458.40;1739264;80;21604;-55
2021/11/08 08:59:05;;;;;;;10.30;9.05;;;;;;;8.18;70.27;99457.32;1710110;82;21503;-56
2021/11/08 09:01:31;;;;;;;11.10;8.18;;;;;;;8.10;70.46;99458.91;1756908;80;22031;-56
2021/11/08 09:03:58;;;;;;;9.48;8.43;;;;;;;8.12;70.91;99462.78;1760776;80;21499;-56
2021/11/08 09:06:26;;;;;;;10.68;9.45;;;;;;;8.22;70.19;99470.70;1754559;80;21424;-56
2021/11/08 09:08:53;;;;;;;10.30;9.20;;;;;;;8.26;69.24;99467.52;1737587;81;21467;-56
2021/11/08 09:11:21;;;;;;;11.70;9.20;;;;;;;8.24;70.04;99465.41;1755903;80;20994;-56
2021/11/08 09:13:49;;;;;;;;;;;;;;;8.24;70.61;99464.11;1753740;80;21789;-55
2021/11/08 09:16:18;;;;;;;12.63;9.43;;;;;;;8.30;70.26;99463.88;1725681;80;20171;-55
2021/11/08 09:18:49;;;;;;;12.28;9.23;;;;;;;8.28;69.91;99467.00;1752663;80;21472;-55
2021/11/08 09:21:17;;;;;;;10.48;8.75;;;;;;;8.43;70.30;99459.92;1753043;80;21488;-56
2021/11/08 09:23:45;;;;;;;;;;;;;;;8.55;69.33;99463.41;1747523;80;21681;-57
2021/11/08 09:26:11;;;;;;;10.38;8.88;;;;;;;8.61;68.52;99452.28;1740499;80;22080;-55
2021/11/08 09:28:38;;;;;;;10.50;9.15;;;;;;;8.74;68.25;99452.23;1747531;80;21672;-55
2021/11/08 09:31:05;;;;;;;9.73;8.77;;;;;;;8.90;67.81;99448.09;1764590;80;21407;-56
2021/11/08 09:33:33;;;;;;;11.18;9.00;;;;;;;9.29;66.70;99443.49;1744237;80;21428;-53
2021/11/08 09:36:05;;;;;;;;;;;;;;;9.61;65.48;99446.56;1750908;80;21473;-55
2021/11/08 09:38:29;;;;;;;9.83;8.23;;;;;;;9.89;64.14;99435.73;1743732;80;21996;-56
2021/11/08 09:40:57;;;;;;;11.03;8.40;;;;;;;10.25;64.59;99435.03;1741792;80;21550;-57
2021/11/08 09:43:24;;;;;;;11.50;8.77;;;;;;;10.47;62.27;99439.34;1720310;81;21622;-56
2021/11/08 09:45:52;;;;;;;10.50;9.20;;;;;;;10.42;62.69;99439.56;1723536;81;21523;-58
2021/11/08 09:48:20;;;;;;;9.33;8.28;;;;;;;10.29;62.33;99446.27;1741911;80;21455;-57
2021/11/08 09:50:46;;;;;;;10.05;8.38;;;;;;;10.09;62.10;99445.34;1740265;80;21559;-58
2021/11/08 09:53:15;;;;;;;12.30;7.83;;;;;;;9.94;62.97;99455.22;1749823;80;21542;-56
2021/11/08 09:55:44;;;;;;;10.85;8.35;;;;;;;9.89;62.82;99457.21;1757266;80;21534;-58
2021/11/08 09:58:11;;;;;;;12.03;7.47;;;;;;;9.93;62.95;99464.88;1734656;80;21635;-58
2021/11/08 10:00:47;;;;;;;12.87;7.50;;;;;;;10.04;62.89;99462.23;1747982;80;21522;-58
2021/11/08 10:03:20;;;;;;;9.93;8.18;;;;;;;10.03;62.25;99463.17;1742832;80;22293;-59
2021/11/08 10:05:49;;;;;;;10.45;8.25;;;;;;;10.12;63.09;99467.56;1737654;80;21419;-59
2021/11/08 10:08:18;;;;;;;9.85;7.05;;;;;;;10.29;61.32;99452.36;1742770;80;21614;-58
2021/11/08 10:10:45;;;;;;;6.95;6.08;;;;;;;10.50;60.56;99453.20;1757920;80;21554;-57
2021/11/08 10:13:19;;;;;;;12.10;6.37;;;;;;;10.62;59.82;99447.83;1751950;80;21129;-57
2021/11/08 10:15:52;;;;;;;8.68;6.85;;;;;;;10.76;59.31;99455.57;1745804;80;22102;-56
2021/11/08 10:18:19;;;;;;;7.53;6.22;;;;;;;10.99;58.30;99459.74;1723263;82;21420;-55
2021/11/08 10:20:49;;;;;;;;;;;;;;;11.03;58.05;99463.92;1766472;80;21518;-55
2021/11/08 10:23:19;;;;;;;7.35;6.00;;;;;;;11.20;58.01;99456.07;1748793;80;20529;-55
2021/11/08 10:25:46;;;;;;;8.43;5.70;;;;;;;11.39;56.13;99475.77;1751923;80;21579;-54
2021/11/08 10:28:17;;;;;;;8.13;5.65;;;;;;;11.53;55.87;99461.95;1748330;80;22118;-56
2021/11/08 10:30:46;;;;;;;8.38;5.90;;;;;;;11.73;55.73;99456.98;1758478;80;21611;-56
2021/11/08 10:33:20;;;;;;;7.40;5.03;;;;;;;12.19;54.30;99467.00;1758775;80;21413;-56
2021/11/08 10:35:56;;;;;;;6.45;4.90;;;;;;;12.53;52.49;99477.08;1761235;80;21030;-58
2021/11/08 10:38:26;;;;;;;8.25;5.08;;;;;;;12.93;50.86;99481.50;1772394;80;21424;-58
2021/11/08 10:41:00;;;;;;;7.25;4.53;;;;;;;13.12;51.33;99470.77;1771314;80;22138;-56
2021/11/08 10:43:37;;;;;;;4.60;3.65;;;;;;;13.76;48.62;99459.17;1771183;80;21589;-56
2021/11/08 10:46:08;;;;;;;4.58;3.85;;;;;;;14.22;46.19;99462.17;1766562;80;21633;-57
2021/11/08 10:48:40;;;;;;;5.42;3.98;;;;;;;14.33;46.43;99458.39;1741710;82;21523;-58
2021/11/08 10:51:10;;;;;;;7.50;4.17;;;;;;;14.87;45.89;99438.38;1736941;82;21501;-57
2021/11/08 10:53:53;;;;;;;8.60;4.37;;;;;;;15.36;45.50;99429.88;1762833;80;21687;-57
2021/11/08 10:56:30;;;;;;;5.53;3.72;;;;;;;15.53;44.42;99424.31;1762634;80;21543;-56
2021/11/08 10:59:01;;;;;;;4.85;3.92;;;;;;;14.91;41.27;99425.31;1765063;80;21509;-58
2021/11/08 11:01:34;;;;;;;4.97;3.50;;;;;;;13.96;44.12;99431.57;1758163;80;21601;-57
2021/11/08 11:04:04;;;;;;;4.05;3.42;;;;;;;13.25;46.21;99430.37;1757806;80;21407;-56
2021/11/08 11:06:49;;;;;;;5.78;4.12;;;;;;;12.84;47.02;99425.64;1773873;80;21830;-54
2021/11/08 11:09:26;;;;;;;8.13;3.83;;;;;;;12.54;47.43;99432.61;1744394;80;21602;-55
2021/11/08 11:12:17;;;;;;;4.55;3.77;;;;;;;12.12;47.37;99437.93;1740654;80;21473;-55
2021/11/08 11:14:48;;;;;;;6.12;3.98;;;;;;;11.66;48.92;99440.65;1742594;80;20991;-54
2021/11/08 11:17:23;;;;;;;8.25;3.70;;;;;;;11.35;49.97;99452.31;1743382;80;21423;-56
2021/11/08 11:19:51;;;;;;;6.53;4.08;;;;;;;11.14;50.25;99456.84;1696597;83;21750;-56
2021/11/08 11:22:21;;;;;;;6.10;4.12;;;;;;;10.84;51.43;99456.05;1701241;82;21595;-57
2021/11/08 11:24:53;;;;;;;4.80;3.70;;;;;;;10.61;52.11;99467.64;1745143;80;21459;-56
2021/11/08 11:27:31;;;;;;;9.75;4.35;;;;;;;10.48;52.79;99470.81;1748241;80;22014;-59
2021/11/08 11:30:18;;;;;;;4.08;3.60;;;;;;;10.31;53.38;99474.67;1751831;79;21167;-56
2021/11/08 11:33:06;;;;;;;6.28;3.98;;;;;;;10.13;52.98;99471.91;1751893;80;21806;-57
2021/11/08 11:35:48;;;;;;;7.00;3.80;;;;;;;9.93;53.48;99484.58;1754740;80;20983;-56
2021/11/08 11:38:26;;;;;;;7.47;4.70;;;;;;;9.73;54.08;99467.03;1746692;80;21676;-56
2021/11/08 11:41:07;;;;;;;6.87;3.95;;;;;;;9.59;54.53;99464.14;1759843;80;21605;-56
2021/11/08 11:43:44;;;;;;;6.00;4.62;;;;;;;9.50;55.47;99465.84;1756795;80;20995;-55
2021/11/08 11:46:18;;;;;;;4.87;4.17;;;;;;;9.41;55.49;99456.56;1757029;80;22043;-55
2021/11/08 11:48:45;;;;;;;6.95;4.97;;;;;;;9.39;55.73;99457.08;1743710;80;21506;-58
2021/11/08 11:51:21;;;;;;;6.80;4.42;;;;;;;9.34;56.26;99465.59;1747224;80;21404;-57
2021/11/08 11:53:48;;;;;;;4.83;3.67;;;;;;;9.37;56.28;99460.23;1752694;80;21563;-56
2021/11/08 11:56:16;;;;;;;5.47;4.42;;;;;;;9.38;56.81;99466.32;1751782;80;21515;-56
2021/11/08 11:58:44;;;;;;;5.97;4.33;;;;;;;9.31;56.72;99465.27;1749271;80;21502;-56
2021/11/08 12:01:13;;;;;;;5.97;4.45;;;;;;;9.28;56.96;99450.95;1757282;80;21432;-56
2021/11/08 12:03:40;;;;;;;6.28;4.30;;;;;;;9.27;57.32;99451.04;1756959;80;21883;-59
2021/11/08 12:06:12;;;;;;;6.07;3.83;;;;;;;9.25;57.63;99459.40;1763404;80;21527;-58
2021/11/08 12:08:39;;;;;;;5.83;4.30;;;;;;;9.29;57.47;99467.10;1747050;80;21522;-58
2021/11/08 12:11:08;;;;;;;5.92;4.47;;;;;;;9.38;57.43;99487.31;1748936;80;21771;-57
2021/11/08 12:13:42;;;;;;;9.78;4.53;;;;;;;9.33;57.48;99492.77;1758960;80;21609;-57
2021/11/08 12:16:18;;;;;;;6.58;4.03;;;;;;;9.33;57.49;99479.64;1757244;80;21482;-58
2021/11/08 12:18:46;;;;;;;5.87;3.80;;;;;;;9.30;57.69;99467.48;1747992;80;21492;-57
2021/11/08 12:21:24;;;;;;;;;;;;;;;9.37;57.50;99480.38;1767147;80;21448;-55
2021/11/08 12:23:52;;;;;;;7.03;4.20;;;;;;;9.37;57.29;99485.63;1764601;80;20433;-56
2021/11/08 12:26:26;;;;;;;6.10;4.08;;;;;;;9.32;57.56;99483.17;1765110;80;21502;-55
2021/11/08 12:29:06;;;;;;;6.33;3.80;;;;;;;9.35;57.49;99478.66;1755005;80;21475;-55
2021/11/08 12:31:34;;;;;;;6.75;3.90;;;;;;;9.34;57.20;99495.33;1764450;80;21452;-55
2021/11/08 12:34:05;;;;;;;7.15;4.53;;;;;;;9.34;56.96;99482.64;1751749;80;21435;-55
2021/11/08 12:36:33;;;;;;;5.58;4.05;;;;;;;9.38;57.39;99503.94;1760267;80;21824;-55
2021/11/08 12:39:07;;;;;;;5.80;4.37;;;;;;;9.30;57.53;99492.88;1772611;80;21424;-54
2021/11/08 12:41:47;;;;;;;4.25;3.67;;;;;;;9.28;57.28;99492.92;1764002;80;20993;-54
2021/11/08 12:44:19;;;;;;;9.30;4.12;;;;;;;9.22;57.18;99493.18;1768577;80;21073;-54
2021/11/08 12:46:58;;;;;;;4.97;3.35;;;;;;;9.16;57.34;99494.74;1740315;80;21572;-54
2021/11/08 12:50:54;;;;;;;5.67;3.98;;;;;;;9.18;57.21;99500.78;1783635;78;23164;-54
2021/11/08 12:53:35;;;;;;;5.78;3.98;;;;;;;9.14;57.54;99499.20;1776485;79;21480;-56
2021/11/08 12:56:23;;;;;;;5.53;3.65;;;;;;;9.18;57.28;99496.84;1777583;80;21608;-56
2021/11/08 12:58:56;;;;;;;6.55;3.90;;;;;;;9.17;57.22;99493.81;1777659;80;21018;-53
2021/11/08 13:01:20;;;;;;;5.47;3.30;;;;;;;9.16;57.41;99494.74;1760883;80;21530;-53
2021/11/08 13:03:51;;;;;;;5.92;3.15;;;;;;;9.19;56.81;99501.62;1746423;80;21041;-53
2021/11/08 13:06:29;;;;;;;5.25;3.58;;;;;;;9.18;57.17;99510.42;1766585;80;21546;-53
2021/11/08 13:09:07;;;;;;;6.92;3.90;;;;;;;9.22;56.64;99510.70;1778498;80;22148;-54
2021/11/08 13:11:49;;;;;;;7.58;3.87;;;;;;;9.16;56.90;99506.08;1778218;80;21033;-52
2021/11/08 13:14:29;;;;;;;7.90;4.12;;;;;;;9.14;57.37;99514.94;1775379;80;21455;-53
2021/11/08 13:17:14;;;;;;;5.80;4.03;;;;;;;9.14;57.40;99513.63;1778956;80;21243;-54
2021/11/08 13:19:50;;;;;;;11.50;4.20;;;;;;;9.13;57.50;99527.64;1762414;80;21510;-54
2021/11/08 13:22:28;;;;;;;7.75;3.95;;;;;;;9.10;57.42;99531.25;1778730;80;22175;-54
2021/11/08 13:25:20;;;;;;;6.10;3.85;;;;;;;9.09;57.29;99533.45;1755146;80;21427;-55
2021/11/08 13:27:51;;;;;;;6.08;3.15;;;;;;;9.11;56.23;99531.62;1749371;80;21523;-54